Terminal Aerodrome Forecast
Issued by NWS

Home | Current Version | Previous Version | Text Only | Print | Product List | Glossary On
Versions: 1 2 3 4 5 6 7 8 9 10 11 12 13 14 15 16 17 18 19
812
FTUS43 KDLH 221127
TAFBRD
TAF
KBRD 221127Z 2212/2312 27008KT P6SM -RA SCT006 BKN014 OVC050
      TEMPO 2212/2214 4SM -RA BKN006 OVC014
     FM221600 29011G16KT P6SM SCT020 BKN040
     FM221800 29011G17KT P6SM VCSH SCT025 BKN040
     FM230100 31006KT P6SM VCSH SCT025 BKN040
     FM230500 33005KT P6SM BKN015=

USA.gov is the U.S. government's official web portal to all federal, state and local government web resources and services.